sensor_id;sensor_type;location;lat;lon;timestamp;P1;durP1;ratioP1;P2;durP2;ratioP2
25980;SDS011;13772;52.996;9.124;2023-03-14T07:50:27;7.43;;;3.10;;
25980;SDS011;13772;52.996;9.124;2023-03-14T07:52:53;7.45;;;3.20;;
25980;SDS011;13772;52.996;9.124;2023-03-14T07:55:18;9.35;;;3.28;;
25980;SDS011;13772;52.996;9.124;2023-03-14T07:57:43;7.22;;;3.28;;
25980;SDS011;13772;52.996;9.124;2023-03-14T08:00:09;10.23;;;4.13;;
25980;SDS011;13772;52.996;9.124;2023-03-14T08:05:03;9.70;;;3.67;;
25980;SDS011;13772;52.996;9.124;2023-03-14T08:07:28;9.77;;;3.53;;
25980;SDS011;13772;52.996;9.124;2023-03-14T08:09:54;9.93;;;3.60;;
25980;SDS011;13772;52.996;9.124;2023-03-14T08:12:19;8.00;;;2.95;;
25980;SDS011;13772;52.996;9.124;2023-03-14T08:14:44;7.00;;;3.30;;
25980;SDS011;13772;52.996;9.124;2023-03-14T08:17:09;5.38;;;2.80;;
25980;SDS011;13772;52.996;9.124;2023-03-14T08:19:35;7.50;;;3.55;;
25980;SDS011;13772;52.996;9.124;2023-03-14T08:22:00;8.35;;;3.13;;
25980;SDS011;13772;52.996;9.124;2023-03-14T08:24:25;8.85;;;2.90;;
25980;SDS011;13772;52.996;9.124;2023-03-14T08:26:50;5.63;;;2.67;;
25980;SDS011;13772;52.996;9.124;2023-03-14T08:29:16;5.88;;;2.30;;
25980;SDS011;13772;52.996;9.124;2023-03-14T08:31:41;5.50;;;2.55;;
25980;SDS011;13772;52.996;9.124;2023-03-14T08:34:06;7.07;;;2.08;;
25980;SDS011;13772;52.996;9.124;2023-03-14T08:36:32;6.90;;;2.95;;
25980;SDS011;13772;52.996;9.124;2023-03-14T08:38:57;7.95;;;2.50;;
25980;SDS011;13772;52.996;9.124;2023-03-14T08:41:22;8.18;;;2.20;;
25980;SDS011;13772;52.996;9.124;2023-03-14T08:43:47;8.05;;;2.63;;
25980;SDS011;13772;52.996;9.124;2023-03-14T08:46:12;4.50;;;1.73;;
25980;SDS011;13772;52.996;9.124;2023-03-14T08:48:38;5.82;;;1.80;;
25980;SDS011;13772;52.996;9.124;2023-03-14T08:51:07;5.60;;;2.00;;
25980;SDS011;13772;52.996;9.124;2023-03-14T08:53:32;5.22;;;1.77;;
25980;SDS011;13772;52.996;9.124;2023-03-14T08:55:57;4.43;;;1.20;;
25980;SDS011;13772;52.996;9.124;2023-03-14T08:58:23;4.80;;;1.40;;
25980;SDS011;13772;52.996;9.124;2023-03-14T09:00:48;4.65;;;1.48;;
25980;SDS011;13772;52.996;9.124;2023-03-14T09:03:14;6.28;;;1.25;;
25980;SDS011;13772;52.996;9.124;2023-03-14T09:05:40;6.05;;;1.52;;
25980;SDS011;13772;52.996;9.124;2023-03-14T09:08:05;5.28;;;1.70;;
25980;SDS011;13772;52.996;9.124;2023-03-14T09:10:30;6.55;;;1.77;;
25980;SDS011;13772;52.996;9.124;2023-03-14T09:12:55;6.00;;;1.60;;
25980;SDS011;13772;52.996;9.124;2023-03-14T09:15:22;7.68;;;2.17;;
25980;SDS011;13772;52.996;9.124;2023-03-14T09:17:47;4.72;;;1.58;;
25980;SDS011;13772;52.996;9.124;2023-03-14T09:20:13;6.47;;;2.20;;
25980;SDS011;13772;52.996;9.124;2023-03-14T09:22:39;5.35;;;2.05;;
25980;SDS011;13772;52.996;9.124;2023-03-14T09:25:04;5.30;;;1.63;;
25980;SDS011;13772;52.996;9.124;2023-03-14T09:27:29;5.90;;;1.63;;
25980;SDS011;13772;52.996;9.124;2023-03-14T09:29:55;3.92;;;1.17;;
25980;SDS011;13772;52.996;9.124;2023-03-14T09:32:20;3.78;;;1.20;;
25980;SDS011;13772;52.996;9.124;2023-03-14T09:34:45;2.97;;;1.15;;
25980;SDS011;13772;52.996;9.124;2023-03-14T09:37:10;5.82;;;1.30;;
25980;SDS011;13772;52.996;9.124;2023-03-14T09:39:36;5.63;;;1.27;;
25980;SDS011;13772;52.996;9.124;2023-03-14T09:42:02;4.18;;;1.15;;
25980;SDS011;13772;52.996;9.124;2023-03-14T09:44:33;4.70;;;1.07;;
25980;SDS011;13772;52.996;9.124;2023-03-14T09:47:03;2.65;;;0.70;;
25980;SDS011;13772;52.996;9.124;2023-03-14T09:49:30;4.93;;;1.10;;
25980;SDS011;13772;52.996;9.124;2023-03-14T09:51:57;2.60;;;0.90;;
25980;SDS011;13772;52.996;9.124;2023-03-14T09:57:19;4.38;;;0.88;;
25980;SDS011;13772;52.996;9.124;2023-03-14T09:59:45;2.80;;;0.95;;
25980;SDS011;13772;52.996;9.124;2023-03-14T10:02:13;3.65;;;1.00;;
25980;SDS011;13772;52.996;9.124;2023-03-14T10:04:39;4.70;;;0.85;;
25980;SDS011;13772;52.996;9.124;2023-03-14T10:07:07;3.28;;;1.00;;
25980;SDS011;13772;52.996;9.124;2023-03-14T10:09:34;7.53;;;1.30;;
25980;SDS011;13772;52.996;9.124;2023-03-14T10:12:00;4.65;;;0.82;;
25980;SDS011;13772;52.996;9.124;2023-03-14T10:14:33;2.88;;;0.70;;
25980;SDS011;13772;52.996;9.124;2023-03-14T10:17:06;3.83;;;0.80;;
25980;SDS011;13772;52.996;9.124;2023-03-14T10:19:32;4.13;;;0.75;;
25980;SDS011;13772;52.996;9.124;2023-03-14T10:22:00;3.72;;;0.88;;
25980;SDS011;13772;52.996;9.124;2023-03-14T10:26:54;3.30;;;0.50;;
25980;SDS011;13772;52.996;9.124;2023-03-14T10:29:19;3.75;;;0.80;;
25980;SDS011;13772;52.996;9.124;2023-03-14T10:31:51;1.02;;;0.30;;
25980;SDS011;13772;52.996;9.124;2023-03-14T10:34:20;1.95;;;0.40;;
25980;SDS011;13772;52.996;9.124;2023-03-14T10:36:45;0.88;;;0.30;;
25980;SDS011;13772;52.996;9.124;2023-03-14T10:39:27;0.28;;;0.17;;
25980;SDS011;13772;52.996;9.124;2023-03-14T10:41:54;0.82;;;0.30;;
25980;SDS011;13772;52.996;9.124;2023-03-14T10:44:23;1.00;;;0.32;;
25980;SDS011;13772;52.996;9.124;2023-03-14T10:47:02;1.47;;;0.40;;
25980;SDS011;13772;52.996;9.124;2023-03-14T10:49:32;1.63;;;0.50;;
25980;SDS011;13772;52.996;9.124;2023-03-14T10:52:02;2.15;;;0.50;;
25980;SDS011;13772;52.996;9.124;2023-03-14T10:54:37;0.30;;;0.22;;
25980;SDS011;13772;52.996;9.124;2023-03-14T10:57:03;0.82;;;0.45;;
25980;SDS011;13772;52.996;9.124;2023-03-14T10:59:32;0.80;;;0.30;;
25980;SDS011;13772;52.996;9.124;2023-03-14T11:02:00;0.68;;;0.20;;
25980;SDS011;13772;52.996;9.124;2023-03-14T11:04:39;1.75;;;0.30;;
25980;SDS011;13772;52.996;9.124;2023-03-14T11:07:08;1.92;;;0.30;;
25980;SDS011;13772;52.996;9.124;2023-03-14T11:10:36;0.20;;;0.20;;
25980;SDS011;13772;52.996;9.124;2023-03-14T11:12:45;0.90;;;0.30;;
25980;SDS011;13772;52.996;9.124;2023-03-14T11:15:34;1.05;;;0.50;;
25980;SDS011;13772;52.996;9.124;2023-03-14T11:20:59;1.13;;;0.32;;
25980;SDS011;13772;52.996;9.124;2023-03-14T11:26:17;1.67;;;0.52;;
25980;SDS011;13772;52.996;9.124;2023-03-14T11:28:47;1.58;;;0.40;;
25980;SDS011;13772;52.996;9.124;2023-03-14T11:31:27;1.73;;;0.50;;
25980;SDS011;13772;52.996;9.124;2023-03-14T11:33:56;2.78;;;0.60;;
25980;SDS011;13772;52.996;9.124;2023-03-14T11:36:39;1.88;;;0.80;;
25980;SDS011;13772;52.996;9.124;2023-03-14T11:39:15;3.75;;;0.90;;
25980;SDS011;13772;52.996;9.124;2023-03-14T11:41:41;7.53;;;1.10;;
25980;SDS011;13772;52.996;9.124;2023-03-14T11:44:15;4.32;;;1.00;;
25980;SDS011;13772;52.996;9.124;2023-03-14T11:46:59;5.07;;;0.75;;
25980;SDS011;13772;52.996;9.124;2023-03-14T11:49:48;5.30;;;0.65;;
25980;SDS011;13772;52.996;9.124;2023-03-14T11:52:32;4.80;;;1.02;;
25980;SDS011;13772;52.996;9.124;2023-03-14T11:57:23;3.88;;;0.80;;
25980;SDS011;13772;52.996;9.124;2023-03-14T12:02:22;4.78;;;0.77;;
25980;SDS011;13772;52.996;9.124;2023-03-14T12:04:53;9.57;;;1.33;;
25980;SDS011;13772;52.996;9.124;2023-03-14T12:07:19;8.35;;;1.70;;
25980;SDS011;13772;52.996;9.124;2023-03-14T12:09:47;6.68;;;1.50;;
25980;SDS011;13772;52.996;9.124;2023-03-14T12:12:14;5.85;;;1.48;;
25980;SDS011;13772;52.996;9.124;2023-03-14T12:14:45;6.18;;;1.33;;
25980;SDS011;13772;52.996;9.124;2023-03-14T12:17:18;10.55;;;2.00;;
25980;SDS011;13772;52.996;9.124;2023-03-14T12:19:44;8.85;;;1.17;;
25980;SDS011;13772;52.996;9.124;2023-03-14T12:22:25;4.88;;;1.20;;
25980;SDS011;13772;52.996;9.124;2023-03-14T12:24:53;8.63;;;1.40;;
25980;SDS011;13772;52.996;9.124;2023-03-14T12:35:38;7.75;;;1.50;;
25980;SDS011;13772;52.996;9.124;2023-03-14T12:38:04;14.35;;;2.47;;
25980;SDS011;13772;52.996;9.124;2023-03-14T12:40:35;10.30;;;2.30;;
25980;SDS011;13772;52.996;9.124;2023-03-14T12:43:04;12.52;;;2.13;;
25980;SDS011;13772;52.996;9.124;2023-03-14T12:45:36;10.80;;;2.10;;
25980;SDS011;13772;52.996;9.124;2023-03-14T12:48:09;14.23;;;2.60;;
25980;SDS011;13772;52.996;9.124;2023-03-14T12:50:36;16.40;;;2.80;;
25980;SDS011;13772;52.996;9.124;2023-03-14T12:55:49;24.85;;;2.90;;
25980;SDS011;13772;52.996;9.124;2023-03-14T13:00:47;17.10;;;2.50;;
25980;SDS011;13772;52.996;9.124;2023-03-14T13:05:59;13.04;;;1.86;;
25980;SDS011;13772;52.996;9.124;2023-03-14T13:08:32;17.42;;;4.03;;
25980;SDS011;13772;52.996;9.124;2023-03-14T13:10:58;15.68;;;2.78;;
25980;SDS011;13772;52.996;9.124;2023-03-14T13:13:24;12.63;;;2.47;;
25980;SDS011;13772;52.996;9.124;2023-03-14T13:15:55;12.82;;;1.95;;
25980;SDS011;13772;52.996;9.124;2023-03-14T13:20:55;12.87;;;2.67;;
25980;SDS011;13772;52.996;9.124;2023-03-14T13:23:30;11.52;;;2.05;;
25980;SDS011;13772;52.996;9.124;2023-03-14T13:25:56;8.95;;;1.83;;
25980;SDS011;13772;52.996;9.124;2023-03-14T13:28:22;8.07;;;1.80;;
25980;SDS011;13772;52.996;9.124;2023-03-14T13:30:48;8.15;;;1.70;;
25980;SDS011;13772;52.996;9.124;2023-03-14T13:33:18;7.53;;;1.70;;
25980;SDS011;13772;52.996;9.124;2023-03-14T13:35:45;12.85;;;1.73;;
25980;SDS011;13772;52.996;9.124;2023-03-14T13:38:16;9.98;;;1.88;;
25980;SDS011;13772;52.996;9.124;2023-03-14T13:40:42;8.98;;;1.52;;
25980;SDS011;13772;52.996;9.124;2023-03-14T13:46:11;8.32;;;2.03;;
25980;SDS011;13772;52.996;9.124;2023-03-14T13:48:29;9.70;;;1.70;;
25980;SDS011;13772;52.996;9.124;2023-03-14T13:50:56;10.60;;;1.85;;
25980;SDS011;13772;52.996;9.124;2023-03-14T13:53:24;10.00;;;1.30;;
25980;SDS011;13772;52.996;9.124;2023-03-14T13:55:50;10.07;;;1.63;;
25980;SDS011;13772;52.996;9.124;2023-03-14T13:58:19;7.70;;;1.80;;
25980;SDS011;13772;52.996;9.124;2023-03-14T14:00:53;8.95;;;1.70;;
25980;SDS011;13772;52.996;9.124;2023-03-14T14:03:18;9.32;;;1.50;;
25980;SDS011;13772;52.996;9.124;2023-03-14T14:05:43;10.10;;;1.98;;
25980;SDS011;13772;52.996;9.124;2023-03-14T14:08:10;11.57;;;1.95;;
25980;SDS011;13772;52.996;9.124;2023-03-14T14:10:37;10.57;;;1.83;;
25980;SDS011;13772;52.996;9.124;2023-03-14T14:13:03;8.60;;;1.52;;
25980;SDS011;13772;52.996;9.124;2023-03-14T14:15:29;9.02;;;1.83;;
25980;SDS011;13772;52.996;9.124;2023-03-14T14:17:57;8.57;;;1.50;;
25980;SDS011;13772;52.996;9.124;2023-03-14T14:20:31;9.15;;;1.50;;
25980;SDS011;13772;52.996;9.124;2023-03-14T14:23:01;7.45;;;1.23;;
25980;SDS011;13772;52.996;9.124;2023-03-14T14:25:26;13.30;;;2.15;;
25980;SDS011;13772;52.996;9.124;2023-03-14T14:27:53;8.40;;;1.63;;
25980;SDS011;13772;52.996;9.124;2023-03-14T14:32:43;9.07;;;1.65;;
25980;SDS011;13772;52.996;9.124;2023-03-14T14:35:10;9.90;;;1.45;;
25980;SDS011;13772;52.996;9.124;2023-03-14T14:37:42;10.20;;;1.80;;
25980;SDS011;13772;52.996;9.124;2023-03-14T14:42:34;5.25;;;1.30;;
25980;SDS011;13772;52.996;9.124;2023-03-14T14:44:59;7.30;;;1.48;;
25980;SDS011;13772;52.996;9.124;2023-03-14T14:47:27;8.90;;;1.67;;
25980;SDS011;13772;52.996;9.124;2023-03-14T14:49:53;8.15;;;1.38;;
25980;SDS011;13772;52.996;9.124;2023-03-14T14:52:31;9.60;;;1.73;;
25980;SDS011;13772;52.996;9.124;2023-03-14T14:54:58;6.50;;;1.33;;
25980;SDS011;13772;52.996;9.124;2023-03-14T14:57:25;7.82;;;1.42;;
25980;SDS011;13772;52.996;9.124;2023-03-14T14:59:54;7.63;;;1.80;;
25980;SDS011;13772;52.996;9.124;2023-03-14T15:02:25;10.25;;;1.85;;
25980;SDS011;13772;52.996;9.124;2023-03-14T15:04:52;10.05;;;2.30;;
25980;SDS011;13772;52.996;9.124;2023-03-14T15:07:17;7.85;;;1.23;;
25980;SDS011;13772;52.996;9.124;2023-03-14T15:09:42;6.40;;;1.27;;
25980;SDS011;13772;52.996;9.124;2023-03-14T15:12:08;11.95;;;1.75;;
25980;SDS011;13772;52.996;9.124;2023-03-14T15:14:33;8.13;;;1.17;;
25980;SDS011;13772;52.996;9.124;2023-03-14T15:16:58;5.00;;;1.05;;
25980;SDS011;13772;52.996;9.124;2023-03-14T15:19:24;7.28;;;1.40;;
25980;SDS011;13772;52.996;9.124;2023-03-14T15:21:51;6.15;;;1.10;;
25980;SDS011;13772;52.996;9.124;2023-03-14T15:24:16;5.63;;;1.05;;
25980;SDS011;13772;52.996;9.124;2023-03-14T15:26:41;6.38;;;1.58;;
25980;SDS011;13772;52.996;9.124;2023-03-14T15:29:09;8.70;;;1.27;;
25980;SDS011;13772;52.996;9.124;2023-03-14T15:31:37;5.85;;;1.25;;
25980;SDS011;13772;52.996;9.124;2023-03-14T15:34:02;7.57;;;1.30;;
25980;SDS011;13772;52.996;9.124;2023-03-14T15:36:29;9.32;;;1.55;;
25980;SDS011;13772;52.996;9.124;2023-03-14T15:38:55;7.10;;;1.48;;
25980;SDS011;13772;52.996;9.124;2023-03-14T15:41:21;7.03;;;1.50;;
25980;SDS011;13772;52.996;9.124;2023-03-14T15:43:47;5.93;;;1.33;;
25980;SDS011;13772;52.996;9.124;2023-03-14T15:46:13;8.63;;;1.15;;
25980;SDS011;13772;52.996;9.124;2023-03-14T15:48:39;10.05;;;1.67;;
25980;SDS011;13772;52.996;9.124;2023-03-14T15:51:04;8.98;;;1.30;;
25980;SDS011;13772;52.996;9.124;2023-03-14T15:53:29;8.90;;;1.52;;
25980;SDS011;13772;52.996;9.124;2023-03-14T15:55:55;11.40;;;1.38;;
25980;SDS011;13772;52.996;9.124;2023-03-14T15:58:20;9.35;;;1.60;;
25980;SDS011;13772;52.996;9.124;2023-03-14T16:00:45;12.13;;;1.98;;
25980;SDS011;13772;52.996;9.124;2023-03-14T16:03:11;10.00;;;2.13;;
25980;SDS011;13772;52.996;9.124;2023-03-14T16:05:37;14.02;;;2.47;;
25980;SDS011;13772;52.996;9.124;2023-03-14T16:08:02;15.75;;;2.30;;
25980;SDS011;13772;52.996;9.124;2023-03-14T16:10:28;7.13;;;1.73;;
25980;SDS011;13772;52.996;9.124;2023-03-14T16:12:53;9.68;;;1.90;;
25980;SDS011;13772;52.996;9.124;2023-03-14T16:15:19;10.35;;;1.75;;
25980;SDS011;13772;52.996;9.124;2023-03-14T16:17:44;11.75;;;1.77;;
25980;SDS011;13772;52.996;9.124;2023-03-14T16:20:10;8.52;;;1.85;;
25980;SDS011;13772;52.996;9.124;2023-03-14T16:22:35;11.32;;;2.35;;
25980;SDS011;13772;52.996;9.124;2023-03-14T16:25:02;9.07;;;1.70;;
25980;SDS011;13772;52.996;9.124;2023-03-14T16:27:27;8.77;;;3.47;;
25980;SDS011;13772;52.996;9.124;2023-03-14T16:29:52;9.60;;;2.22;;
25980;SDS011;13772;52.996;9.124;2023-03-14T16:32:17;11.30;;;3.60;;
25980;SDS011;13772;52.996;9.124;2023-03-14T16:34:43;6.55;;;2.72;;
25980;SDS011;13772;52.996;9.124;2023-03-14T16:37:08;5.80;;;3.05;;
25980;SDS011;13772;52.996;9.124;2023-03-14T16:39:33;9.88;;;1.42;;
25980;SDS011;13772;52.996;9.124;2023-03-14T16:41:58;6.88;;;2.38;;
25980;SDS011;13772;52.996;9.124;2023-03-14T16:44:24;8.32;;;2.13;;
25980;SDS011;13772;52.996;9.124;2023-03-14T16:46:49;9.77;;;2.25;;
25980;SDS011;13772;52.996;9.124;2023-03-14T16:49:15;13.70;;;4.85;;
25980;SDS011;13772;52.996;9.124;2023-03-14T16:51:40;10.80;;;2.20;;
25980;SDS011;13772;52.996;9.124;2023-03-14T16:54:06;12.70;;;3.92;;
25980;SDS011;13772;52.996;9.124;2023-03-14T16:56:31;10.07;;;2.10;;
25980;SDS011;13772;52.996;9.124;2023-03-14T16:58:56;16.83;;;6.05;;
25980;SDS011;13772;52.996;9.124;2023-03-14T17:01:22;12.98;;;4.40;;
25980;SDS011;13772;52.996;9.124;2023-03-14T17:03:48;9.88;;;2.95;;
25980;SDS011;13772;52.996;9.124;2023-03-14T17:06:20;8.55;;;2.08;;
25980;SDS011;13772;52.996;9.124;2023-03-14T17:08:47;14.15;;;4.32;;
25980;SDS011;13772;52.996;9.124;2023-03-14T17:11:12;11.45;;;1.83;;
25980;SDS011;13772;52.996;9.124;2023-03-14T17:13:38;10.50;;;1.40;;
25980;SDS011;13772;52.996;9.124;2023-03-14T17:16:03;6.82;;;1.65;;
25980;SDS011;13772;52.996;9.124;2023-03-14T17:18:29;7.28;;;2.10;;
25980;SDS011;13772;52.996;9.124;2023-03-14T17:20:55;9.02;;;1.50;;
25980;SDS011;13772;52.996;9.124;2023-03-14T17:23:21;11.23;;;2.85;;
25980;SDS011;13772;52.996;9.124;2023-03-14T17:25:47;10.32;;;4.20;;
25980;SDS011;13772;52.996;9.124;2023-03-14T17:28:12;7.03;;;2.10;;
25980;SDS011;13772;52.996;9.124;2023-03-14T17:30:38;10.27;;;1.58;;
25980;SDS011;13772;52.996;9.124;2023-03-14T17:33:03;6.97;;;1.02;;
25980;SDS011;13772;52.996;9.124;2023-03-14T17:35:29;4.47;;;1.10;;
25980;SDS011;13772;52.996;9.124;2023-03-14T17:37:55;8.48;;;1.90;;
25980;SDS011;13772;52.996;9.124;2023-03-14T17:40:20;11.50;;;3.38;;
25980;SDS011;13772;52.996;9.124;2023-03-14T17:42:45;6.82;;;1.65;;
25980;SDS011;13772;52.996;9.124;2023-03-14T17:45:10;16.88;;;6.38;;
25980;SDS011;13772;52.996;9.124;2023-03-14T17:47:35;16.40;;;6.95;;
25980;SDS011;13772;52.996;9.124;2023-03-14T17:50:01;8.98;;;3.33;;
25980;SDS011;13772;52.996;9.124;2023-03-14T17:52:29;11.27;;;2.65;;
25980;SDS011;13772;52.996;9.124;2023-03-14T17:54:55;13.10;;;4.30;;
25980;SDS011;13772;52.996;9.124;2023-03-14T17:57:20;8.07;;;2.33;;
25980;SDS011;13772;52.996;9.124;2023-03-14T17:59:45;8.02;;;2.17;;
25980;SDS011;13772;52.996;9.124;2023-03-14T18:02:10;9.52;;;3.45;;
25980;SDS011;13772;52.996;9.124;2023-03-14T18:04:35;17.15;;;4.18;;
25980;SDS011;13772;52.996;9.124;2023-03-14T18:07:00;8.77;;;2.28;;
25980;SDS011;13772;52.996;9.124;2023-03-14T18:09:26;11.85;;;2.80;;
25980;SDS011;13772;52.996;9.124;2023-03-14T18:11:51;13.57;;;2.13;;
25980;SDS011;13772;52.996;9.124;2023-03-14T18:14:16;10.60;;;2.55;;
25980;SDS011;13772;52.996;9.124;2023-03-14T18:16:42;14.65;;;3.15;;
25980;SDS011;13772;52.996;9.124;2023-03-14T18:19:13;8.98;;;2.00;;
25980;SDS011;13772;52.996;9.124;2023-03-14T18:21:38;9.68;;;2.33;;
25980;SDS011;13772;52.996;9.124;2023-03-14T18:24:05;11.50;;;2.00;;
25980;SDS011;13772;52.996;9.124;2023-03-14T18:26:30;7.88;;;2.03;;
25980;SDS011;13772;52.996;9.124;2023-03-14T18:28:55;11.45;;;2.20;;
25980;SDS011;13772;52.996;9.124;2023-03-14T18:31:21;5.55;;;1.70;;
25980;SDS011;13772;52.996;9.124;2023-03-14T18:33:49;8.82;;;1.90;;
25980;SDS011;13772;52.996;9.124;2023-03-14T18:36:16;9.13;;;2.15;;
25980;SDS011;13772;52.996;9.124;2023-03-14T18:38:42;8.95;;;2.17;;
25980;SDS011;13772;52.996;9.124;2023-03-14T18:41:08;7.80;;;1.58;;
25980;SDS011;13772;52.996;9.124;2023-03-14T18:43:33;9.07;;;1.50;;
25980;SDS011;13772;52.996;9.124;2023-03-14T18:45:59;6.75;;;1.67;;
25980;SDS011;13772;52.996;9.124;2023-03-14T18:48:24;5.55;;;1.15;;
25980;SDS011;13772;52.996;9.124;2023-03-14T18:50:50;7.63;;;1.45;;
25980;SDS011;13772;52.996;9.124;2023-03-14T18:53:15;10.95;;;1.65;;
25980;SDS011;13772;52.996;9.124;2023-03-14T18:55:40;5.63;;;1.73;;
25980;SDS011;13772;52.996;9.124;2023-03-14T18:58:05;7.88;;;1.77;;
25980;SDS011;13772;52.996;9.124;2023-03-14T19:00:31;7.15;;;1.67;;
25980;SDS011;13772;52.996;9.124;2023-03-14T19:02:56;6.85;;;1.60;;
25980;SDS011;13772;52.996;9.124;2023-03-14T19:05:21;9.35;;;1.60;;
25980;SDS011;13772;52.996;9.124;2023-03-14T19:07:46;5.93;;;1.38;;
25980;SDS011;13772;52.996;9.124;2023-03-14T19:10:11;7.60;;;1.40;;
25980;SDS011;13772;52.996;9.124;2023-03-14T19:12:37;8.50;;;1.70;;
25980;SDS011;13772;52.996;9.124;2023-03-14T19:15:02;13.13;;;1.92;;
25980;SDS011;13772;52.996;9.124;2023-03-14T19:17:27;7.93;;;1.52;;
25980;SDS011;13772;52.996;9.124;2023-03-14T19:19:52;8.23;;;1.58;;
25980;SDS011;13772;52.996;9.124;2023-03-14T19:22:18;11.15;;;1.45;;
25980;SDS011;13772;52.996;9.124;2023-03-14T19:24:43;7.32;;;1.30;;
25980;SDS011;13772;52.996;9.124;2023-03-14T19:27:08;9.10;;;1.70;;
25980;SDS011;13772;52.996;9.124;2023-03-14T19:29:33;7.95;;;1.95;;
25980;SDS011;13772;52.996;9.124;2023-03-14T19:32:05;8.10;;;1.38;;
25980;SDS011;13772;52.996;9.124;2023-03-14T19:34:31;8.45;;;2.20;;
25980;SDS011;13772;52.996;9.124;2023-03-14T19:36:56;5.90;;;1.80;;
25980;SDS011;13772;52.996;9.124;2023-03-14T19:39:21;10.45;;;2.03;;
25980;SDS011;13772;52.996;9.124;2023-03-14T19:41:46;7.80;;;2.50;;
25980;SDS011;13772;52.996;9.124;2023-03-14T19:44:12;6.93;;;1.70;;
25980;SDS011;13772;52.996;9.124;2023-03-14T19:46:37;10.68;;;1.92;;
25980;SDS011;13772;52.996;9.124;2023-03-14T19:49:02;7.15;;;1.55;;
25980;SDS011;13772;52.996;9.124;2023-03-14T19:51:29;13.27;;;2.15;;
25980;SDS011;13772;52.996;9.124;2023-03-14T19:53:55;6.88;;;1.92;;
25980;SDS011;13772;52.996;9.124;2023-03-14T19:56:21;10.55;;;1.85;;
25980;SDS011;13772;52.996;9.124;2023-03-14T19:58:48;11.82;;;2.63;;
25980;SDS011;13772;52.996;9.124;2023-03-14T20:01:13;6.93;;;2.08;;
25980;SDS011;13772;52.996;9.124;2023-03-14T20:03:38;10.45;;;2.50;;
25980;SDS011;13772;52.996;9.124;2023-03-14T20:06:04;12.18;;;3.70;;
25980;SDS011;13772;52.996;9.124;2023-03-14T20:08:29;11.55;;;2.03;;
25980;SDS011;13772;52.996;9.124;2023-03-14T20:10:55;7.90;;;2.33;;
25980;SDS011;13772;52.996;9.124;2023-03-14T20:13:20;10.75;;;2.13;;
25980;SDS011;13772;52.996;9.124;2023-03-14T20:15:45;7.05;;;1.55;;
25980;SDS011;13772;52.996;9.124;2023-03-14T20:18:10;9.90;;;1.50;;
25980;SDS011;13772;52.996;9.124;2023-03-14T20:20:37;7.70;;;1.10;;
25980;SDS011;13772;52.996;9.124;2023-03-14T20:23:03;5.40;;;1.15;;
25980;SDS011;13772;52.996;9.124;2023-03-14T20:25:28;10.60;;;1.40;;
25980;SDS011;13772;52.996;9.124;2023-03-14T20:27:53;6.32;;;1.30;;
25980;SDS011;13772;52.996;9.124;2023-03-14T20:30:19;7.80;;;1.52;;
25980;SDS011;13772;52.996;9.124;2023-03-14T20:32:46;5.25;;;1.40;;
25980;SDS011;13772;52.996;9.124;2023-03-14T20:35:12;9.80;;;1.95;;
25980;SDS011;13772;52.996;9.124;2023-03-14T20:37:37;6.78;;;1.50;;
25980;SDS011;13772;52.996;9.124;2023-03-14T20:40:03;9.60;;;1.80;;
25980;SDS011;13772;52.996;9.124;2023-03-14T20:42:32;9.02;;;1.45;;
25980;SDS011;13772;52.996;9.124;2023-03-14T20:44:58;8.25;;;1.40;;
25980;SDS011;13772;52.996;9.124;2023-03-14T20:47:23;8.45;;;1.70;;
25980;SDS011;13772;52.996;9.124;2023-03-14T20:49:48;9.27;;;1.80;;
25980;SDS011;13772;52.996;9.124;2023-03-14T20:52:13;11.77;;;2.47;;
25980;SDS011;13772;52.996;9.124;2023-03-14T20:54:39;8.77;;;2.25;;
25980;SDS011;13772;52.996;9.124;2023-03-14T20:57:05;10.15;;;2.92;;
25980;SDS011;13772;52.996;9.124;2023-03-14T20:59:30;9.15;;;2.47;;
25980;SDS011;13772;52.996;9.124;2023-03-14T21:01:55;8.48;;;2.35;;
25980;SDS011;13772;52.996;9.124;2023-03-14T21:04:22;10.52;;;2.50;;
25980;SDS011;13772;52.996;9.124;2023-03-14T21:06:49;11.10;;;2.50;;
25980;SDS011;13772;52.996;9.124;2023-03-14T21:09:14;11.63;;;2.60;;
25980;SDS011;13772;52.996;9.124;2023-03-14T21:11:39;14.93;;;4.23;;
25980;SDS011;13772;52.996;9.124;2023-03-14T21:14:11;17.88;;;6.20;;
25980;SDS011;13772;52.996;9.124;2023-03-14T21:16:36;14.88;;;6.20;;
25980;SDS011;13772;52.996;9.124;2023-03-14T21:19:01;12.57;;;3.83;;
25980;SDS011;13772;52.996;9.124;2023-03-14T21:21:26;10.10;;;2.88;;
25980;SDS011;13772;52.996;9.124;2023-03-14T21:23:51;13.00;;;3.40;;
25980;SDS011;13772;52.996;9.124;2023-03-14T21:26:18;11.43;;;2.10;;
25980;SDS011;13772;52.996;9.124;2023-03-14T21:28:43;5.95;;;1.73;;
25980;SDS011;13772;52.996;9.124;2023-03-14T21:31:09;12.13;;;2.50;;
25980;SDS011;13772;52.996;9.124;2023-03-14T21:33:35;10.48;;;2.17;;
25980;SDS011;13772;52.996;9.124;2023-03-14T21:36:01;10.07;;;2.55;;
25980;SDS011;13772;52.996;9.124;2023-03-14T21:38:26;11.50;;;2.90;;
25980;SDS011;13772;52.996;9.124;2023-03-14T21:40:54;12.20;;;2.53;;
25980;SDS011;13772;52.996;9.124;2023-03-14T21:45:46;9.53;;;2.40;;
25980;SDS011;13772;52.996;9.124;2023-03-14T21:48:11;12.87;;;2.20;;
25980;SDS011;13772;52.996;9.124;2023-03-14T21:50:37;11.13;;;1.88;;
25980;SDS011;13772;52.996;9.124;2023-03-14T21:53:02;9.13;;;1.97;;
25980;SDS011;13772;52.996;9.124;2023-03-14T21:55:27;9.87;;;2.37;;
25980;SDS011;13772;52.996;9.124;2023-03-14T21:57:53;8.25;;;2.03;;
25980;SDS011;13772;52.996;9.124;2023-03-14T22:00:19;7.30;;;2.17;;
25980;SDS011;13772;52.996;9.124;2023-03-14T22:02:45;8.73;;;1.87;;
25980;SDS011;13772;52.996;9.124;2023-03-14T22:05:11;12.68;;;1.92;;
25980;SDS011;13772;52.996;9.124;2023-03-14T22:07:37;8.53;;;2.17;;
25980;SDS011;13772;52.996;9.124;2023-03-14T22:10:02;7.67;;;1.83;;
25980;SDS011;13772;52.996;9.124;2023-03-14T22:12:28;8.80;;;1.87;;
25980;SDS011;13772;52.996;9.124;2023-03-14T22:14:53;9.43;;;2.13;;
25980;SDS011;13772;52.996;9.124;2023-03-14T22:17:18;6.33;;;1.83;;
25980;SDS011;13772;52.996;9.124;2023-03-14T22:19:44;9.07;;;2.23;;
25980;SDS011;13772;52.996;9.124;2023-03-14T22:22:09;9.07;;;1.70;;
25980;SDS011;13772;52.996;9.124;2023-03-14T22:24:34;8.20;;;1.77;;
25980;SDS011;13772;52.996;9.124;2023-03-14T22:27:00;6.83;;;1.43;;
25980;SDS011;13772;52.996;9.124;2023-03-14T22:29:25;12.23;;;2.57;;
25980;SDS011;13772;52.996;9.124;2023-03-14T22:31:50;12.73;;;2.30;;
25980;SDS011;13772;52.996;9.124;2023-03-14T22:34:15;9.37;;;1.50;;
25980;SDS011;13772;52.996;9.124;2023-03-14T22:36:41;10.05;;;1.52;;
25980;SDS011;13772;52.996;9.124;2023-03-14T22:39:06;12.63;;;1.73;;
25980;SDS011;13772;52.996;9.124;2023-03-14T22:41:32;9.20;;;1.75;;
25980;SDS011;13772;52.996;9.124;2023-03-14T22:43:57;8.50;;;1.70;;
25980;SDS011;13772;52.996;9.124;2023-03-14T22:46:22;8.23;;;2.03;;
25980;SDS011;13772;52.996;9.124;2023-03-14T22:48:47;8.35;;;1.98;;
25980;SDS011;13772;52.996;9.124;2023-03-14T22:51:13;10.80;;;1.80;;
25980;SDS011;13772;52.996;9.124;2023-03-14T22:53:38;10.67;;;1.97;;
25980;SDS011;13772;52.996;9.124;2023-03-14T22:56:04;9.88;;;1.88;;
